Time;durP1;ratioP1;P1;durP2;ratioP2;P2;SDS_P1;SDS_P2;PMS_P1;PMS_P2;Temp;Humidity;BMP_temperature;BMP_pressure;BME280_temperature;BME280_humidity;BME280_pressure;Samples;Min_cycle;Max_cycle;Signal;HPM_P1;HPM_P2
2022/04/22 00:02:07;;;;;;;6.37;4.30;;;9.30;1.00;;;;;;4954278;28;48910;-93
2022/04/22 00:04:45;;;;;;;6.00;4.03;;;9.20;1.00;;;;;;4946927;28;20530;-91
2022/04/22 00:23:16;;;;;;;6.72;5.45;;;8.80;1.00;;;;;;4832074;29;20544;-91
2022/04/22 00:25:49;;;;;;;7.35;4.50;;;8.80;1.00;;;;;;4970110;28;20233;-90
2022/04/22 00:30:59;;;;;;;7.50;4.57;;;8.70;1.00;;;;;;4962333;28;20256;-91
2022/04/22 00:33:38;;;;;;;8.30;4.18;;;8.70;1.00;;;;;;4977442;28;20432;-90
2022/04/22 00:36:07;;;;;;;8.35;4.30;;;8.60;1.00;;;;;;4973375;28;20240;-91
2022/04/22 00:38:47;;;;;;;8.43;4.77;;;8.60;1.00;;;;;;4982190;28;20259;-92
2022/04/22 00:41:24;;;;;;;5.07;4.20;;;8.50;1.00;;;;;;4965316;28;20432;-90
2022/04/22 00:44:18;;;;;;;6.80;4.75;;;8.50;1.00;;;;;;4958864;28;20308;-90
2022/04/22 00:46:46;;;;;;;7.45;4.95;;;8.50;1.00;;;;;;4955811;28;20237;-93
2022/04/22 00:49:31;;;;;;;;;;;;;;;;;;;;;
2022/04/22 00:52:08;;;;;;;9.80;8.50;;;8.30;1.00;;;;;;4978921;28;51621;-90
2022/04/22 00:54:38;;;;;;;7.45;4.93;;;8.20;1.00;;;;;;4977573;28;20237;-91
2022/04/22 00:57:07;;;;;;;5.35;4.65;;;8.20;1.00;;;;;;4975596;28;20426;-91
2022/04/22 00:59:58;;;;;;;8.32;4.70;;;8.20;1.00;;;;;;4978015;28;20214;-89
2022/04/22 01:03:07;;;;;;;;;;;;;;;;;;;;;
2022/04/22 01:11:19;;;;;;;7.03;5.30;;;8.00;1.00;;;;;;5015678;28;20219;-83
2022/04/22 01:13:48;;;;;;;7.80;6.15;;;7.90;1.00;;;;;;5008499;28;20333;-85
2022/04/22 01:16:56;;;;;;;9.40;6.25;;;7.90;1.00;;;;;;5013894;28;20247;-82
2022/04/22 01:20:18;;;;;;;;;;;;;;;;;;;;;
2022/04/22 01:23:19;;;;;;;;;;;;;;;;;;;;;
2022/04/22 01:26:09;;;;;;;8.65;5.70;;;7.70;1.00;;;;;;4928085;28;40420;-82
2022/04/22 01:32:18;;;;;;;11.93;7.07;;;7.60;1.00;;;;;;4987539;28;20214;-81
2022/04/22 01:43:49;;;;;;;10.27;6.40;;;7.40;1.00;;;;;;4990339;28;20571;-82
2022/04/22 01:46:26;;;;;;;9.77;6.88;;;7.40;1.00;;;;;;5007134;28;20219;-82
2022/04/22 01:52:49;;;;;;;8.52;5.82;;;7.30;1.00;;;;;;4845106;29;20423;-82
2022/04/22 01:58:19;;;;;;;10.48;6.80;;;7.20;1.00;;;;;;5003028;23;49577;-82
2022/04/22 02:00:47;;;;;;;9.60;6.38;;;7.20;1.00;;;;;;5011206;28;20233;-82
2022/04/22 02:03:16;;;;;;;10.05;6.85;;;7.20;1.00;;;;;;5015029;28;20243;-81
2022/04/22 02:06:09;;;;;;;;;;;;;;;;;;;;;
2022/04/22 02:08:45;;;;;;;10.73;7.70;;;7.10;1.00;;;;;;4977911;28;39775;-82
2022/04/22 02:11:40;;;;;;;9.65;7.63;;;7.20;1.00;;;;;;4985814;28;20296;-83
2022/04/22 02:14:27;;;;;;;11.77;8.15;;;7.20;1.00;;;;;;4970416;28;20720;-82
2022/04/22 02:16:54;;;;;;;11.40;6.30;;;7.20;1.00;;;;;;4994239;23;20299;-82
2022/04/22 02:19:37;;;;;;;10.07;6.97;;;7.30;1.00;;;;;;5027509;28;20254;-82
2022/04/22 02:22:08;;;;;;;14.43;8.60;;;7.30;1.00;;;;;;5032653;28;20235;-82
2022/04/22 02:24:37;;;;;;;9.85;7.85;;;7.30;1.00;;;;;;5031299;28;20261;-82
2022/04/22 02:29:59;;;;;;;9.43;7.45;;;7.30;1.00;;;;;;5036321;28;20223;-84
2022/04/22 02:32:26;;;;;;;11.95;8.82;;;7.30;1.00;;;;;;5031772;28;20254;-82
2022/04/22 02:34:58;;;;;;;10.48;8.10;;;7.40;1.00;;;;;;5015599;28;20235;-82
2022/04/22 02:37:27;;;;;;;10.73;7.57;;;7.40;1.00;;;;;;5027811;28;20225;-82
2022/04/22 02:40:12;;;;;;;13.70;8.60;;;7.50;1.00;;;;;;5026945;28;20238;-83
2022/04/22 02:45:54;;;;;;;9.57;7.32;;;7.60;1.00;;;;;;5031919;28;20245;-82
2022/04/22 02:51:49;;;;;;;11.77;8.05;;;7.60;1.00;;;;;;5024995;28;20550;-82
2022/04/22 02:54:17;;;;;;;11.40;8.07;;;7.50;1.00;;;;;;4978447;28;20303;-82
2022/04/22 02:56:50;;;;;;;10.70;7.47;;;7.60;1.00;;;;;;5025785;28;20233;-83
2022/04/22 02:59:29;;;;;;;11.52;9.05;;;7.60;1.00;;;;;;5032530;28;20711;-82
2022/04/22 03:11:21;;;;;;;9.90;8.07;;;7.60;1.00;;;;;;5003174;28;20329;-81
2022/04/22 03:19:56;;;;;;;13.30;8.25;;;7.50;1.00;;;;;;5003312;28;20311;-83
2022/04/22 03:22:36;;;;;;;11.30;8.32;;;7.50;1.00;;;;;;5001227;28;20218;-81
2022/04/22 03:25:36;;;;;;;12.07;8.85;;;7.50;1.00;;;;;;5017681;28;20320;-82
2022/04/22 03:28:19;;;;;;;11.57;8.40;;;7.50;1.00;;;;;;4994271;28;20223;-83
2022/04/22 03:30:48;;;;;;;14.40;9.68;;;7.40;1.00;;;;;;4992293;28;20368;-82
2022/04/22 03:33:26;;;;;;;12.35;8.18;;;7.40;1.00;;;;;;5016172;28;20235;-82
2022/04/22 03:36:09;;;;;;;13.30;9.20;;;7.40;1.00;;;;;;5027372;28;20230;-83
2022/04/22 03:38:37;;;;;;;14.80;9.07;;;7.30;1.00;;;;;;5023129;28;20228;-82
2022/04/22 03:44:19;;;;;;;10.32;8.65;;;7.30;1.00;;;;;;5027343;28;20289;-81
2022/04/22 03:47:05;;;;;;;15.43;9.68;;;7.20;1.00;;;;;;5011200;28;20234;-84
2022/04/22 03:49:51;;;;;;;13.15;8.73;;;7.20;1.00;;;;;;5004839;28;20445;-80
2022/04/22 03:52:19;;;;;;;11.80;9.02;;;7.20;1.00;;;;;;4995869;28;20306;-80
2022/04/22 03:54:50;;;;;;;10.60;8.90;;;7.20;1.00;;;;;;5005229;28;20240;-82
2022/04/22 04:00:32;;;;;;;16.55;9.15;;;7.30;1.00;;;;;;5014122;28;20385;-82
2022/04/22 04:55:19;;;;;;;;;;;;;;;;;;;;;
2022/04/22 04:57:54;;;;;;;14.13;10.75;;;7.80;1.00;;;;;;6201528;22;39031;-82
2022/04/22 05:00:23;;;;;;;15.32;11.65;;;7.80;1.00;;;;;;6247860;22;20208;-83
2022/04/22 05:03:01;;;;;;;14.32;9.90;;;7.80;1.00;;;;;;6238048;22;20205;-82
2022/04/22 05:05:33;;;;;;;15.57;10.07;;;7.80;1.00;;;;;;6269262;22;20230;-81
2022/04/22 05:08:02;;;;;;;12.40;9.32;;;7.90;1.00;;;;;;6286286;22;20217;-81
2022/04/22 05:10:30;;;;;;;17.95;10.05;;;7.90;1.00;;;;;;6288125;22;20213;-81
2022/04/22 05:12:59;;;;;;;14.32;10.68;;;8.00;1.00;;;;;;6293703;22;20191;-83
2022/04/22 05:15:33;;;;;;;17.67;10.23;;;8.00;1.00;;;;;;6293818;22;20199;-81
2022/04/22 05:18:07;;;;;;;18.63;10.27;;;8.20;1.00;;;;;;6293312;22;20246;-81
2022/04/22 05:20:38;;;;;;;18.13;10.70;;;8.30;1.00;;;;;;6296152;22;20221;-81
2022/04/22 05:23:07;;;;;;;15.75;14.20;;;8.40;1.00;;;;;;6296576;22;20201;-82
2022/04/22 05:25:37;;;;;;;16.58;10.82;;;8.70;1.00;;;;;;6292225;22;20250;-81
2022/04/22 05:28:08;;;;;;;15.57;9.07;;;8.80;1.00;;;;;;6293451;22;20215;-83
2022/04/22 06:13:48;;;;;;;14.33;9.83;;;10.20;1.00;;;;;;6253350;22;20988;-80
2022/04/22 06:18:50;;;;;;;12.20;9.20;;;10.10;1.00;;;;;;6251119;22;20408;-81
2022/04/22 06:21:17;;;;;;;11.37;9.73;;;10.00;1.00;;;;;;6286576;22;20444;-80
2022/04/22 06:23:44;;;;;;;11.47;9.57;;;10.20;1.00;;;;;;6284429;22;21146;-80
2022/04/22 06:29:00;;;;;;;15.77;10.00;;;10.70;1.00;;;;;;6278369;22;20434;-79
2022/04/22 06:31:30;;;;;;;12.73;8.73;;;10.90;1.00;;;;;;6306145;22;20426;-80
2022/04/22 06:33:57;;;;;;;12.43;9.23;;;10.90;1.00;;;;;;6315856;22;20989;-79
2022/04/22 06:36:30;;;;;;;11.47;8.07;;;11.10;1.00;;;;;;6319709;22;20403;-79
2022/04/22 06:38:58;;;;;;;9.63;7.80;;;11.20;1.00;;;;;;6296304;22;20387;-79
2022/04/22 06:47:08;;;;;;;12.30;8.27;;;11.30;1.00;;;;;;6308707;22;20406;-79
2022/04/22 06:49:38;;;;;;;13.03;8.33;;;11.30;1.00;;;;;;6298233;22;20421;-78
2022/04/22 06:52:07;;;;;;;11.10;8.67;;;11.30;1.00;;;;;;6316645;22;20389;-78
2022/04/22 06:54:37;;;;;;;13.33;9.97;;;11.30;1.00;;;;;;6284309;22;20412;-78
2022/04/22 06:57:08;;;;;;;12.23;9.07;;;11.40;1.00;;;;;;6293431;22;20431;-78
2022/04/22 06:59:39;;;;;;;11.33;8.70;;;11.50;1.00;;;;;;6299850;22;20407;-79
2022/04/22 07:02:08;;;;;;;10.77;8.10;;;11.60;1.00;;;;;;6296343;22;20400;-79
2022/04/22 07:04:37;;;;;;;11.17;8.10;;;11.50;1.00;;;;;;6293286;22;20442;-79
2022/04/22 07:07:08;;;;;;;9.47;8.23;;;11.50;1.00;;;;;;6296797;22;20387;-79
2022/04/22 07:09:38;;;;;;;10.13;8.33;;;11.60;1.00;;;;;;6313623;22;20398;-79
2022/04/22 07:12:27;;;;;;;9.77;8.70;;;11.70;1.00;;;;;;6268944;22;20406;-79
2022/04/22 07:15:09;;;;;;;9.40;7.77;;;11.80;1.00;;;;;;6232429;22;20392;-80
2022/04/22 07:17:40;;;;;;;10.63;8.17;;;11.90;1.00;;;;;;6284981;22;20403;-80
2022/04/22 07:20:19;;;;;;;16.13;12.63;;;12.00;1.00;;;;;;6285412;22;20431;-79
2022/04/22 07:22:59;;;;;;;11.60;7.90;;;12.10;1.00;;;;;;6263890;22;20384;-80
2022/04/22 07:25:29;;;;;;;16.57;9.60;;;12.20;1.00;;;;;;6276777;22;20455;-80
2022/04/22 07:27:58;;;;;;;10.40;8.10;;;12.50;1.00;;;;;;6271688;22;20376;-79
2022/04/22 07:30:29;;;;;;;14.57;8.53;;;12.70;1.00;;;;;;6290164;22;20426;-79
2022/04/22 07:32:58;;;;;;;10.60;8.50;;;12.80;1.00;;;;;;6276261;22;20436;-80
2022/04/22 07:35:28;;;;;;;9.43;8.30;;;12.90;1.00;;;;;;6288563;22;20417;-80
2022/04/22 07:37:58;;;;;;;10.00;8.10;;;13.00;1.00;;;;;;6270619;22;20396;-80
2022/04/22 07:40:25;;;;;;;10.77;8.20;;;13.00;1.00;;;;;;6271167;22;20384;-81
2022/04/22 07:51:29;;;;;;;9.97;8.97;;;12.50;1.00;;;;;;6194042;22;20778;-81
2022/04/22 07:53:57;;;;;;;15.10;9.70;;;12.40;1.00;;;;;;6226670;22;20394;-81
2022/04/22 07:56:27;;;;;;;14.57;9.47;;;12.30;1.00;;;;;;6237074;22;20442;-82
2022/04/22 07:58:58;;;;;;;13.53;9.53;;;12.30;1.00;;;;;;6267307;22;20503;-79
2022/04/22 08:01:37;;;;;;;12.70;9.67;;;12.30;1.00;;;;;;6277592;22;20392;-80
2022/04/22 08:04:11;;;;;;;14.60;11.37;;;12.30;1.00;;;;;;6286604;22;20406;-79
2022/04/22 08:06:40;;;;;;;13.70;10.00;;;12.40;1.00;;;;;;6271869;22;20494;-81
2022/04/22 08:09:17;;;;;;;13.13;10.67;;;12.30;1.00;;;;;;6282212;22;20445;-81
2022/04/22 08:11:48;;;;;;;12.57;10.50;;;12.40;1.00;;;;;;6290845;22;20455;-78
2022/04/22 08:14:18;;;;;;;14.03;11.30;;;12.80;1.00;;;;;;6288537;22;20372;-80
2022/04/22 08:16:47;;;;;;;12.67;11.37;;;13.10;1.00;;;;;;6281730;22;20486;-78
2022/04/22 08:19:19;;;;;;;11.70;10.07;;;13.40;1.00;;;;;;6286496;22;20410;-79
2022/04/22 08:22:06;;;;;;;13.40;11.53;;;13.60;1.00;;;;;;6286797;22;20403;-80
2022/04/22 08:24:58;;;;;;;15.23;11.37;;;13.80;1.00;;;;;;6287915;22;20411;-79
2022/04/22 08:27:28;;;;;;;13.13;11.80;;;14.00;1.00;;;;;;6151873;23;20403;-79
2022/04/22 22:42:12;;;;;;;18.52;12.02;;;9.10;1.00;;;;;;6265203;22;20419;-92
2022/04/22 22:45:35;;;;;;;20.35;12.23;;;9.10;1.00;;;;;;6271493;22;20196;-92
2022/04/22 22:48:33;;;;;;;19.97;12.00;;;9.10;1.00;;;;;;6201058;22;20199;-93
2022/04/22 22:51:14;;;;;;;19.73;12.80;;;9.10;1.00;;;;;;6265235;22;20375;-91
2022/04/22 22:53:53;;;;;;;19.77;13.13;;;9.10;1.00;;;;;;6278101;22;20230;-93
2022/04/22 22:56:35;;;;;;;19.73;12.73;;;9.00;1.00;;;;;;6265859;22;20414;-93
2022/04/22 22:59:25;;;;;;;;;;;;;;;;;;;;;
2022/04/22 23:02:03;;;;;;;18.83;12.40;;;9.00;1.00;;;;;;6176949;22;42218;-92
2022/04/22 23:08:22;;;;;;;22.83;13.67;;;8.90;1.00;;;;;;6256647;22;20229;-93
2022/04/22 23:11:12;;;;;;;19.87;13.10;;;8.80;1.00;;;;;;6238188;22;20418;-92
2022/04/22 23:16:32;;;;;;;21.27;12.90;;;8.70;1.00;;;;;;6255190;22;20204;-92
2022/04/22 23:22:15;;;;;;;23.47;14.47;;;8.70;1.00;;;;;;6248406;22;20213;-91
2022/04/22 23:25:24;;;;;;;21.35;13.77;;;8.50;1.00;;;;;;6247160;22;20430;-92
2022/04/22 23:36:28;;;;;;;21.20;13.32;;;8.40;1.00;;;;;;6267217;22;20203;-93
2022/04/22 23:44:25;;;;;;;22.55;14.48;;;8.30;1.00;;;;;;6281999;22;20383;-93
2022/04/22 23:47:15;;;;;;;22.35;14.30;;;8.30;1.00;;;;;;6280520;22;20340;-91
2022/04/22 23:50:16;;;;;;;22.02;14.40;;;8.30;1.00;;;;;;6303626;22;20268;-93
2022/04/22 23:58:15;;;;;;;24.45;15.85;;;8.20;1.00;;;;;;6287902;22;20454;-93
